createdAt,value
2023-06-17T00:02:47.376Z,97328.81
2023-06-17T00:07:52.343Z,97320.94
2023-06-17T00:12:55.756Z,97322.03
2023-06-17T00:18:01.532Z,97317.94
2023-06-17T00:23:07.607Z,97308.59
2023-06-17T00:28:10.966Z,97304.66
2023-06-17T00:33:14.494Z,97308.97
2023-06-17T00:38:19.195Z,97301.91
2023-06-17T00:43:24.022Z,97305.16
2023-06-17T00:48:27.627Z,97305.34
2023-06-17T00:53:33.009Z,97299.84
2023-06-17T00:58:37.422Z,97300.84
2023-06-17T01:03:41.066Z,97293.19
2023-06-17T01:08:47.825Z,97296.66
2023-06-17T01:13:52.881Z,97288.63
2023-06-17T01:18:57.278Z,97285.84
2023-06-17T01:24:03.516Z,97285.19
2023-06-17T01:29:08.856Z,97278.03
2023-06-17T01:34:12.650Z,97276.09
2023-06-17T01:39:19.159Z,97274.38
2023-06-17T01:44:27.970Z,97277.19
2023-06-17T01:49:31.521Z,97275.81
2023-06-17T01:54:36.373Z,97281.09
2023-06-17T01:59:41.295Z,97275.91
2023-06-17T02:04:44.898Z,97276.91
2023-06-17T02:09:48.749Z,97277.72
2023-06-17T02:14:53.772Z,97275.03
2023-06-17T02:19:57.491Z,97279.22
2023-06-17T02:25:01.662Z,97280.97
2023-06-17T02:30:07.980Z,97261.50
2023-06-17T02:35:12.054Z,97270.94
2023-06-17T02:40:15.497Z,97262.72
2023-06-17T02:45:20.366Z,97262.72
2023-06-17T02:50:24.764Z,97272.44
2023-06-17T02:55:28.883Z,97262.34
2023-06-17T03:00:35.521Z,97263.19
2023-06-17T03:05:39.724Z,97261.59
2023-06-17T03:10:43.319Z,97268.09
2023-06-17T03:15:52.019Z,97269.91
2023-06-17T03:20:56.879Z,97269.28
2023-06-17T03:26:02.026Z,97268.63
2023-06-17T03:31:07.698Z,97272.50
2023-06-17T03:36:11.275Z,97274.78
2023-06-17T03:41:15.213Z,97271.50
2023-06-17T03:46:21.001Z,97268.44
2023-06-17T03:51:24.560Z,97267.94
2023-06-17T03:56:28.790Z,97264.50
2023-06-17T04:01:33.821Z,97263.81
2023-06-17T04:06:37.506Z,97266.81
2023-06-17T04:11:42.930Z,97263.66
2023-06-17T04:16:51.102Z,97254.16
2023-06-17T04:21:55.070Z,97259.50
2023-06-17T04:26:59.878Z,97260.94
2023-06-17T04:32:11.612Z,97254.38
2023-06-17T04:37:15.881Z,97254.47
2023-06-17T04:42:19.527Z,97247.84
2023-06-17T04:47:24.614Z,97250.97
2023-06-17T04:52:31.425Z,97254.91
2023-06-17T04:57:37.473Z,97246.16
2023-06-17T05:02:42.957Z,97247.41
2023-06-17T05:07:47.450Z,97252.63
2023-06-17T05:12:51.526Z,97251.38
2023-06-17T05:17:57.059Z,97253.44
2023-06-17T05:23:01.354Z,97253.53
2023-06-17T05:28:07.842Z,97252.09
2023-06-17T05:33:14.331Z,97256.66
2023-06-17T05:38:18.335Z,97254.34
2023-06-17T05:43:22.665Z,97254.03
2023-06-17T05:48:27.914Z,97253.22
2023-06-17T05:53:31.315Z,97264.94
2023-06-17T05:58:34.675Z,97264.13
2023-06-17T06:03:42.335Z,97260.25
2023-06-17T06:08:45.985Z,97254.31
2023-06-17T06:13:49.430Z,97254.81
2023-06-17T06:18:54.089Z,97262.94
2023-06-17T06:24:00.390Z,97259.47
2023-06-17T06:29:10.652Z,97256.28
2023-06-17T06:34:15.852Z,97259.66
2023-06-17T06:39:19.427Z,97264.16
2023-06-17T06:44:23.956Z,97267.66
2023-06-17T06:49:31.201Z,97274.25
2023-06-17T06:54:35.203Z,97279.50
2023-06-17T06:59:39.795Z,97278.97
2023-06-17T07:04:45.410Z,97280.53
2023-06-17T07:09:49.052Z,97279.94
2023-06-17T07:14:52.758Z,97278.00
2023-06-17T07:19:58.058Z,97289.31
2023-06-17T07:25:01.597Z,97280.16
2023-06-17T07:30:06.129Z,97277.88
2023-06-17T07:35:12.370Z,97281.50
2023-06-17T07:40:16.212Z,97280.31
2023-06-17T07:45:20.639Z,97281.25
2023-06-17T07:50:26.810Z,97285.59
2023-06-17T07:55:31.694Z,97283.81
2023-06-17T08:00:35.596Z,97279.66
2023-06-17T08:05:40.245Z,97284.97
2023-06-17T08:10:44.481Z,97277.25
2023-06-17T08:15:47.821Z,97282.78
2023-06-17T08:20:54.106Z,97275.28
2023-06-17T08:25:58.448Z,97269.81
2023-06-17T08:31:01.808Z,97269.13
2023-06-17T08:36:06.906Z,97270.69
2023-06-17T08:41:10.361Z,97275.50
2023-06-17T08:46:15.117Z,97271.59
2023-06-17T08:51:20.788Z,97272.88
2023-06-17T08:56:24.328Z,97271.50
2023-06-17T09:01:28.594Z,97273.91
2023-06-17T09:06:34.224Z,97262.72
2023-06-17T09:11:37.565Z,97270.72
2023-06-17T09:16:41.000Z,97265.38
2023-06-17T09:21:48.464Z,97262.59
2023-06-17T09:26:52.855Z,97246.59
2023-06-17T09:31:58.921Z,97248.16
2023-06-17T09:37:04.853Z,97251.75
2023-06-17T09:42:11.648Z,97241.69
2023-06-17T09:47:16.461Z,97240.75
2023-06-17T09:52:22.411Z,97252.84
2023-06-17T09:57:27.586Z,97239.19
2023-06-17T10:02:31.769Z,97235.16
2023-06-17T10:07:36.810Z,97221.34
2023-06-17T10:12:42.725Z,97234.13
2023-06-17T10:17:47.097Z,97222.72
2023-06-17T10:22:55.815Z,97207.59
2023-06-17T10:28:00.354Z,97209.41
2023-06-17T10:33:05.099Z,97201.97
2023-06-17T10:38:11.804Z,97195.81
2023-06-17T10:43:22.252Z,97198.19
2023-06-17T10:48:27.208Z,97200.53
2023-06-17T10:53:37.409Z,97195.81
2023-06-17T10:58:48.511Z,97188.66
2023-06-17T11:03:52.075Z,97182.44
2023-06-17T11:08:57.121Z,97170.84
2023-06-17T11:14:01.098Z,97175.44
2023-06-17T11:19:04.506Z,97169.16
2023-06-17T11:24:11.299Z,97162.59
2023-06-17T11:29:15.128Z,97166.09
2023-06-17T11:34:19.361Z,97154.75
2023-06-17T11:39:25.980Z,97167.59
2023-06-17T11:44:29.431Z,97149.22
2023-06-17T11:49:32.868Z,97161.78
2023-06-17T11:54:39.219Z,97153.34
2023-06-17T11:59:44.868Z,97160.81
2023-06-17T12:04:48.503Z,97154.66
2023-06-17T12:09:55.069Z,97148.53
2023-06-17T12:15:04.632Z,97140.94
2023-06-17T12:20:15.689Z,97148.38
2023-06-17T12:25:21.759Z,97160.59
2023-06-17T12:30:26.163Z,97149.59
2023-06-17T12:35:29.680Z,97144.59
2023-06-17T12:40:34.989Z,97129.63
2023-06-17T12:45:39.265Z,97131.75
2023-06-17T12:50:44.111Z,97123.47
2023-06-17T12:55:49.493Z,97132.69
2023-06-17T13:00:52.929Z,97112.03
2023-06-17T13:05:56.341Z,97132.13
2023-06-17T13:11:02.065Z,97116.69
2023-06-17T13:16:05.856Z,97107.88
2023-06-17T13:21:10.436Z,97115.34
2023-06-17T13:26:15.743Z,97122.03
2023-06-17T13:31:19.216Z,97112.63
2023-06-17T13:36:23.930Z,97112.88
2023-06-17T13:41:31.787Z,97114.53
2023-06-17T13:46:36.541Z,97101.44
2023-06-17T13:51:40.484Z,97122.81
2023-06-17T13:56:47.368Z,97126.19
2023-06-17T14:01:50.918Z,97123.66
2023-06-17T14:06:55.712Z,97120.19
2023-06-17T14:12:01.487Z,97109.69
2023-06-17T14:17:05.394Z,97107.44
2023-06-17T14:22:10.301Z,97092.78
2023-06-17T14:27:40.205Z,97087.00
2023-06-17T14:32:44.615Z,97087.38
2023-06-17T14:37:51.025Z,97099.06
2023-06-17T14:42:55.734Z,97102.13
2023-06-17T14:47:59.085Z,97091.88
2023-06-17T14:53:02.654Z,97087.47
2023-06-17T14:58:07.988Z,97084.34
2023-06-17T15:03:13.878Z,97089.38
2023-06-17T15:08:17.195Z,97086.56
2023-06-17T15:13:22.739Z,97094.78
2023-06-17T15:18:26.864Z,97091.34
2023-06-17T15:23:30.765Z,97080.53
2023-06-17T15:28:36.083Z,97075.31
2023-06-17T15:33:39.334Z,97073.31
2023-06-17T15:38:42.771Z,97078.03
2023-06-17T15:43:47.305Z,97077.00
2023-06-17T15:48:51.448Z,97083.50
2023-06-17T15:53:54.893Z,97078.16
2023-06-17T15:59:01.214Z,97066.56
2023-06-17T16:04:33.362Z,97083.69
2023-06-17T16:09:39.166Z,97080.06
2023-06-17T16:14:46.113Z,97084.53
2023-06-17T16:19:49.984Z,97097.47
2023-06-17T16:24:53.494Z,97092.63
2023-06-17T16:29:58.371Z,97088.44
2023-06-17T16:35:05.196Z,97093.69
2023-06-17T16:40:12.157Z,97100.00
2023-06-17T16:45:17.479Z,97087.34
2023-06-17T16:50:21.139Z,97090.84
2023-06-17T16:55:24.757Z,97104.34
2023-06-17T17:00:30.782Z,97107.50
2023-06-17T17:05:34.311Z,97096.19
2023-06-17T17:10:38.222Z,97110.84
2023-06-17T17:15:45.115Z,97091.03
2023-06-17T17:20:48.701Z,97104.34
2023-06-17T17:25:52.258Z,97107.63
2023-06-17T17:30:56.848Z,97106.63
2023-06-17T17:36:00.035Z,97101.09
2023-06-17T17:41:03.329Z,97120.31
2023-06-17T17:46:10.410Z,97123.03
2023-06-17T17:51:13.866Z,97118.34
2023-06-17T17:56:17.061Z,97131.09
2023-06-17T18:01:21.874Z,97148.16
2023-06-17T18:06:25.422Z,97148.69
2023-06-17T18:11:29.971Z,97145.78
2023-06-17T18:16:35.116Z,97150.38
2023-06-17T18:21:38.752Z,97153.09
2023-06-17T18:26:42.086Z,97158.91
2023-06-17T18:31:48.254Z,97163.06
2023-06-17T18:36:51.553Z,97158.94
2023-06-17T18:41:56.210Z,97154.75
2023-06-17T18:47:01.349Z,97156.16
2023-06-17T18:52:04.982Z,97161.16
2023-06-17T18:57:10.384Z,97158.38
2023-06-17T19:02:17.324Z,97167.75
2023-06-17T19:07:20.946Z,97174.94
2023-06-17T19:12:24.469Z,97176.19
2023-06-17T19:17:29.290Z,97181.13
2023-06-17T19:22:32.553Z,97193.16
2023-06-17T19:27:36.014Z,97197.75
2023-06-17T19:32:40.733Z,97210.63
2023-06-17T19:37:43.999Z,97209.50
2023-06-17T19:42:47.509Z,97209.63
2023-06-17T19:47:52.499Z,97222.78
2023-06-17T19:52:56.013Z,97219.34
2023-06-17T19:57:59.317Z,97230.00
2023-06-17T20:03:04.189Z,97232.34
2023-06-17T20:08:07.650Z,97233.16
2023-06-17T20:13:11.221Z,97224.63
2023-06-17T20:18:27.100Z,97231.78
2023-06-17T20:23:36.616Z,97232.13
2023-06-17T20:28:39.922Z,97231.47
2023-06-17T20:33:45.703Z,97239.72
2023-06-17T20:38:49.534Z,97236.69
2023-06-17T20:43:54.090Z,97230.53
2023-06-17T20:48:58.790Z,97220.81
2023-06-17T20:54:02.299Z,97225.47
2023-06-17T20:59:05.559Z,97228.22
2023-06-17T21:04:10.205Z,97219.50
2023-06-17T21:09:14.068Z,97222.25
2023-06-17T21:14:17.634Z,97226.84
2023-06-17T21:19:22.592Z,97232.50
2023-06-17T21:24:28.223Z,97225.44
2023-06-17T21:29:31.566Z,97227.44
2023-06-17T21:34:37.137Z,97226.63
2023-06-17T21:39:41.705Z,97227.94
2023-06-17T21:44:45.045Z,97230.47
2023-06-17T21:49:49.969Z,97230.63
2023-06-17T21:54:53.310Z,97235.63
2023-06-17T21:59:56.838Z,97240.69
2023-06-17T22:05:02.565Z,97232.66
2023-06-17T22:10:06.611Z,97229.13
2023-06-17T22:15:10.876Z,97234.47
2023-06-17T22:20:16.564Z,97226.78
2023-06-17T22:25:20.234Z,97232.06
2023-06-17T22:30:24.183Z,97241.50
2023-06-17T22:35:30.344Z,97234.19
2023-06-17T22:40:33.976Z,97229.13
2023-06-17T22:45:37.299Z,97232.25
2023-06-17T22:50:42.568Z,97238.16
2023-06-17T22:55:46.133Z,97242.59
2023-06-17T23:00:49.655Z,97225.47
2023-06-17T23:05:54.455Z,97233.44
2023-06-17T23:10:58.624Z,97233.22
2023-06-17T23:16:02.873Z,97236.72
2023-06-17T23:21:08.467Z,97237.72
2023-06-17T23:26:13.190Z,97237.03
2023-06-17T23:31:17.285Z,97238.97
2023-06-17T23:36:24.224Z,97242.19
2023-06-17T23:41:29.211Z,97231.22
2023-06-17T23:46:32.465Z,97225.25
2023-06-17T23:51:37.193Z,97233.41
2023-06-17T23:56:40.569Z,97228.69
